Aviation Digital Data Service (ADDS)

Output produced by METARs form (0242 UTC 25 January 2020)
found at http://www.aviationweather.gov/metar/data/
 
METAR text: LROP 250230Z 25008KT 8000 NSC M02/M05 Q1021 NOSIG
Conditions at: LROP (BUCHAREST/OTOPEN, RO) observed 0230 UTC 25 January 2020
Temperature: -2.0°C (28°F)
Dewpoint: -5.0°C (23°F) [RH = 80%]
Pressure (altimeter): 30.15 inches Hg (1021.0 mb)
Winds: from the WSW (250 degrees) at 9 MPH (8 knots; 4.1 m/s)
Visibility: 5 miles ( 8 km)
Ceiling: at least 12,000 feet AGL
Clouds: sky clear below 12,000 feet AGL
Weather: no significant weather observed at this time

METAR text: LROP 250200Z 25008KT 7000 NSC M02/M05 Q1022 NOSIG
Conditions at: LROP (BUCHAREST/OTOPEN, RO) observed 0200 UTC 25 January 2020
Temperature: -2.0°C (28°F)
Dewpoint: -5.0°C (23°F) [RH = 80%]
Pressure (altimeter): 30.18 inches Hg (1022.0 mb)
Winds: from the WSW (250 degrees) at 9 MPH (8 knots; 4.1 m/s)
Visibility: 4 miles ( 7 km)
Ceiling: at least 12,000 feet AGL
Clouds: sky clear below 12,000 feet AGL
Weather: no significant weather observed at this time

METAR text: LROP 250130Z 26007KT 7000 NSC M02/M05 Q1022 NOSIG
Conditions at: LROP (BUCHAREST/OTOPEN, RO) observed 0130 UTC 25 January 2020
Temperature: -2.0°C (28°F)
Dewpoint: -5.0°C (23°F) [RH = 80%]
Pressure (altimeter): 30.18 inches Hg (1022.0 mb)
Winds: from the W (260 degrees) at 8 MPH (7 knots; 3.6 m/s)
Visibility: 4 miles ( 7 km)
Ceiling: at least 12,000 feet AGL
Clouds: sky clear below 12,000 feet AGL
Weather: no significant weather observed at this time

METAR text: LROP 250100Z 25009KT 7000 NSC M02/M05 Q1022 NOSIG
Conditions at: LROP (BUCHAREST/OTOPEN, RO) observed 0100 UTC 25 January 2020
Temperature: -2.0°C (28°F)
Dewpoint: -5.0°C (23°F) [RH = 80%]
Pressure (altimeter): 30.18 inches Hg (1022.0 mb)
Winds: from the WSW (250 degrees) at 10 MPH (9 knots; 4.6 m/s)
Visibility: 4 miles ( 7 km)
Ceiling: at least 12,000 feet AGL
Clouds: sky clear below 12,000 feet AGL
Weather: no significant weather observed at this time

METAR text: LROP 250030Z 26010KT 7000 NSC M02/M05 Q1022 NOSIG
Conditions at: LROP (BUCHAREST/OTOPEN, RO) observed 0030 UTC 25 January 2020
Temperature: -2.0°C (28°F)
Dewpoint: -5.0°C (23°F) [RH = 80%]
Pressure (altimeter): 30.18 inches Hg (1022.0 mb)
Winds: from the W (260 degrees) at 12 MPH (10 knots; 5.1 m/s)
Visibility: 4 miles ( 7 km)
Ceiling: at least 12,000 feet AGL
Clouds: sky clear below 12,000 feet AGL
Weather: no significant weather observed at this time

METAR text: LROP 250000Z 26009KT 7000 NSC M02/M05 Q1022 NOSIG
Conditions at: LROP (BUCHAREST/OTOPEN, RO) observed 0000 UTC 25 January 2020
Temperature: -2.0°C (28°F)
Dewpoint: -5.0°C (23°F) [RH = 80%]
Pressure (altimeter): 30.18 inches Hg (1022.0 mb)
Winds: from the W (260 degrees) at 10 MPH (9 knots; 4.6 m/s)
Visibility: 4 miles ( 7 km)
Ceiling: at least 12,000 feet AGL
Clouds: sky clear below 12,000 feet AGL
Weather: no significant weather observed at this time

METAR text: LROP 242330Z 26008KT 7000 NSC M02/M05 Q1023 NOSIG
Conditions at: LROP (BUCHAREST/OTOPEN, RO) observed 2330 UTC 24 January 2020
Temperature: -2.0°C (28°F)
Dewpoint: -5.0°C (23°F) [RH = 80%]
Pressure (altimeter): 30.21 inches Hg (1023.0 mb)
Winds: from the W (260 degrees) at 9 MPH (8 knots; 4.1 m/s)
Visibility: 4 miles ( 7 km)
Ceiling: at least 12,000 feet AGL
Clouds: sky clear below 12,000 feet AGL
Weather: no significant weather observed at this time

METAR text: LROP 242300Z 26011KT 7000 NSC M02/M05 Q1023 NOSIG
Conditions at: LROP (BUCHAREST/OTOPEN, RO) observed 2300 UTC 24 January 2020
Temperature: -2.0°C (28°F)
Dewpoint: -5.0°C (23°F) [RH = 80%]
Pressure (altimeter): 30.21 inches Hg (1023.0 mb)
Winds: from the W (260 degrees) at 13 MPH (11 knots; 5.7 m/s)
Visibility: 4 miles ( 7 km)
Ceiling: at least 12,000 feet AGL
Clouds: sky clear below 12,000 feet AGL
Weather: no significant weather observed at this time

METAR text: LROP 242230Z 26007KT 8000 NSC M01/M05 Q1023 NOSIG
Conditions at: LROP (BUCHAREST/OTOPEN, RO) observed 2230 UTC 24 January 2020
Temperature: -1.0°C (30°F)
Dewpoint: -5.0°C (23°F) [RH = 74%]
Pressure (altimeter): 30.21 inches Hg (1023.0 mb)
Winds: from the W (260 degrees) at 8 MPH (7 knots; 3.6 m/s)
Visibility: 5 miles ( 8 km)
Ceiling: at least 12,000 feet AGL
Clouds: sky clear below 12,000 feet AGL
Weather: no significant weather observed at this time

METAR text: LROP 242200Z 26008KT 7000 NSC M02/M05 Q1024 NOSIG
Conditions at: LROP (BUCHAREST/OTOPEN, RO) observed 2200 UTC 24 January 2020
Temperature: -2.0°C (28°F)
Dewpoint: -5.0°C (23°F) [RH = 80%]
Pressure (altimeter): 30.24 inches Hg (1024.0 mb)
Winds: from the W (260 degrees) at 9 MPH (8 knots; 4.1 m/s)
Visibility: 4 miles ( 7 km)
Ceiling: at least 12,000 feet AGL
Clouds: sky clear below 12,000 feet AGL
Weather: no significant weather observed at this time

METAR text: LROP 242130Z 26009KT 8000 NSC M01/M05 Q1024 NOSIG
Conditions at: LROP (BUCHAREST/OTOPEN, RO) observed 2130 UTC 24 January 2020
Temperature: -1.0°C (30°F)
Dewpoint: -5.0°C (23°F) [RH = 74%]
Pressure (altimeter): 30.24 inches Hg (1024.0 mb)
Winds: from the W (260 degrees) at 10 MPH (9 knots; 4.6 m/s)
Visibility: 5 miles ( 8 km)
Ceiling: at least 12,000 feet AGL
Clouds: sky clear below 12,000 feet AGL
Weather: no significant weather observed at this time

METAR text: LROP 242100Z 27008KT 9000 NSC M00/M05 Q1024 NOSIG
Conditions at: LROP (BUCHAREST/OTOPEN, RO) observed 2100 UTC 24 January 2020
Temperature: 0.0°C (32°F)
Dewpoint: -5.0°C (23°F) [RH = 69%]
Pressure (altimeter): 30.24 inches Hg (1024.0 mb)
Winds: from the W (270 degrees) at 9 MPH (8 knots; 4.1 m/s)
Visibility: 6 miles ( 9 km)
Ceiling: at least 12,000 feet AGL
Clouds: sky clear below 12,000 feet AGL
Weather: no significant weather observed at this time

METAR text: LROP 242030Z 27008KT CAVOK M01/M05 Q1025 NOSIG
Conditions at: LROP (BUCHAREST/OTOPEN, RO) observed 2030 UTC 24 January 2020
Temperature: -1.0°C (30°F)
Dewpoint: -5.0°C (23°F) [RH = 74%]
Pressure (altimeter): 30.27 inches Hg (1025.0 mb)
Winds: from the W (270 degrees) at 9 MPH (8 knots; 4.1 m/s)
Visibility: 6 or more miles (10+ km)
Ceiling: ceiling and visibility are OK
Clouds: unknown
Weather: no significant weather observed at this time

METAR text: LROP 242000Z 26009KT CAVOK M00/M05 Q1025 NOSIG
Conditions at: LROP (BUCHAREST/OTOPEN, RO) observed 2000 UTC 24 January 2020
Temperature: 0.0°C (32°F)
Dewpoint: -5.0°C (23°F) [RH = 69%]
Pressure (altimeter): 30.27 inches Hg (1025.0 mb)
Winds: from the W (260 degrees) at 10 MPH (9 knots; 4.6 m/s)
Visibility: 6 or more miles (10+ km)
Ceiling: ceiling and visibility are OK
Clouds: unknown
Weather: no significant weather observed at this time

METAR text: LROP 241930Z 26006KT CAVOK M00/M05 Q1025 NOSIG
Conditions at: LROP (BUCHAREST/OTOPEN, RO) observed 1930 UTC 24 January 2020
Temperature: 0.0°C (32°F)
Dewpoint: -5.0°C (23°F) [RH = 69%]
Pressure (altimeter): 30.27 inches Hg (1025.0 mb)
Winds: from the W (260 degrees) at 7 MPH (6 knots; 3.1 m/s)
Visibility: 6 or more miles (10+ km)
Ceiling: ceiling and visibility are OK
Clouds: unknown
Weather: no significant weather observed at this time

METAR text: LROP 241900Z 27008KT CAVOK 00/M05 Q1025 NOSIG
Conditions at: LROP (BUCHAREST/OTOPEN, RO) observed 1900 UTC 24 January 2020
Temperature: 0.0°C (32°F)
Dewpoint: -5.0°C (23°F) [RH = 69%]
Pressure (altimeter): 30.27 inches Hg (1025.0 mb)
Winds: from the W (270 degrees) at 9 MPH (8 knots; 4.1 m/s)
Visibility: 6 or more miles (10+ km)
Ceiling: ceiling and visibility are OK
Clouds: unknown
Weather: no significant weather observed at this time

METAR text: LROP 241830Z 25005KT CAVOK 01/M05 Q1025 NOSIG
Conditions at: LROP (BUCHAREST/OTOPEN, RO) observed 1830 UTC 24 January 2020
Temperature: 1.0°C (34°F)
Dewpoint: -5.0°C (23°F) [RH = 64%]
Pressure (altimeter): 30.27 inches Hg (1025.0 mb)
Winds: from the WSW (250 degrees) at 6 MPH (5 knots; 2.6 m/s)
Visibility: 6 or more miles (10+ km)
Ceiling: ceiling and visibility are OK
Clouds: unknown
Weather: no significant weather observed at this time

METAR text: LROP 241800Z 25006KT CAVOK 01/M06 Q1026 NOSIG
Conditions at: LROP (BUCHAREST/OTOPEN, RO) observed 1800 UTC 24 January 2020
Temperature: 1.0°C (34°F)
Dewpoint: -6.0°C (21°F) [RH = 59%]
Pressure (altimeter): 30.30 inches Hg (1026.0 mb)
Winds: from the WSW (250 degrees) at 7 MPH (6 knots; 3.1 m/s)
Visibility: 6 or more miles (10+ km)
Ceiling: ceiling and visibility are OK
Clouds: unknown
Weather: no significant weather observed at this time

METAR text: LROP 241730Z 26004KT CAVOK 02/M06 Q1026 NOSIG
Conditions at: LROP (BUCHAREST/OTOPEN, RO) observed 1730 UTC 24 January 2020
Temperature: 2.0°C (36°F)
Dewpoint: -6.0°C (21°F) [RH = 55%]
Pressure (altimeter): 30.30 inches Hg (1026.0 mb)
Winds: from the W (260 degrees) at 5 MPH (4 knots; 2.1 m/s)
Visibility: 6 or more miles (10+ km)
Ceiling: ceiling and visibility are OK
Clouds: unknown
Weather: no significant weather observed at this time

METAR text: LROP 241700Z 26007KT CAVOK 01/M06 Q1026 NOSIG
Conditions at: LROP (BUCHAREST/OTOPEN, RO) observed 1700 UTC 24 January 2020
Temperature: 1.0°C (34°F)
Dewpoint: -6.0°C (21°F) [RH = 59%]
Pressure (altimeter): 30.30 inches Hg (1026.0 mb)
Winds: from the W (260 degrees) at 8 MPH (7 knots; 3.6 m/s)
Visibility: 6 or more miles (10+ km)
Ceiling: ceiling and visibility are OK
Clouds: unknown
Weather: no significant weather observed at this time

METAR text: LROP 241630Z 25007KT CAVOK 03/M06 Q1026 NOSIG
Conditions at: LROP (BUCHAREST/OTOPEN, RO) observed 1630 UTC 24 January 2020
Temperature: 3.0°C (37°F)
Dewpoint: -6.0°C (21°F) [RH = 52%]
Pressure (altimeter): 30.30 inches Hg (1026.0 mb)
Winds: from the WSW (250 degrees) at 8 MPH (7 knots; 3.6 m/s)
Visibility: 6 or more miles (10+ km)
Ceiling: ceiling and visibility are OK
Clouds: unknown
Weather: no significant weather observed at this time

METAR text: LROP 241600Z 26006KT CAVOK 02/M06 Q1026 NOSIG
Conditions at: LROP (BUCHAREST/OTOPEN, RO) observed 1600 UTC 24 January 2020
Temperature: 2.0°C (36°F)
Dewpoint: -6.0°C (21°F) [RH = 55%]
Pressure (altimeter): 30.30 inches Hg (1026.0 mb)
Winds: from the W (260 degrees) at 7 MPH (6 knots; 3.1 m/s)
Visibility: 6 or more miles (10+ km)
Ceiling: ceiling and visibility are OK
Clouds: unknown
Weather: no significant weather observed at this time

METAR text: LROP 241530Z 26008KT CAVOK 04/M06 Q1026 NOSIG
Conditions at: LROP (BUCHAREST/OTOPEN, RO) observed 1530 UTC 24 January 2020
Temperature: 4.0°C (39°F)
Dewpoint: -6.0°C (21°F) [RH = 48%]
Pressure (altimeter): 30.30 inches Hg (1026.0 mb)
Winds: from the W (260 degrees) at 9 MPH (8 knots; 4.1 m/s)
Visibility: 6 or more miles (10+ km)
Ceiling: ceiling and visibility are OK
Clouds: unknown
Weather: no significant weather observed at this time

METAR text: LROP 241500Z 26008KT CAVOK 05/M07 Q1027 NOSIG
Conditions at: LROP (BUCHAREST/OTOPEN, RO) observed 1500 UTC 24 January 2020
Temperature: 5.0°C (41°F)
Dewpoint: -7.0°C (19°F) [RH = 41%]
Pressure (altimeter): 30.32 inches Hg (1027.0 mb)
Winds: from the W (260 degrees) at 9 MPH (8 knots; 4.1 m/s)
Visibility: 6 or more miles (10+ km)
Ceiling: ceiling and visibility are OK
Clouds: unknown
Weather: no significant weather observed at this time

METAR text: LROP 241430Z 26010KT CAVOK 07/M07 Q1027 NOSIG
Conditions at: LROP (BUCHAREST/OTOPEN, RO) observed 1430 UTC 24 January 2020
Temperature: 7.0°C (45°F)
Dewpoint: -7.0°C (19°F) [RH = 36%]
Pressure (altimeter): 30.32 inches Hg (1027.0 mb)
Winds: from the W (260 degrees) at 12 MPH (10 knots; 5.1 m/s)
Visibility: 6 or more miles (10+ km)
Ceiling: ceiling and visibility are OK
Clouds: unknown
Weather: no significant weather observed at this time

METAR text: LROP 241400Z 26010KT CAVOK 07/M07 Q1027 NOSIG
Conditions at: LROP (BUCHAREST/OTOPEN, RO) observed 1400 UTC 24 January 2020
Temperature: 7.0°C (45°F)
Dewpoint: -7.0°C (19°F) [RH = 36%]
Pressure (altimeter): 30.32 inches Hg (1027.0 mb)
Winds: from the W (260 degrees) at 12 MPH (10 knots; 5.1 m/s)
Visibility: 6 or more miles (10+ km)
Ceiling: ceiling and visibility are OK
Clouds: unknown
Weather: no significant weather observed at this time

METAR text: LROP 241330Z 26013KT CAVOK 07/M07 Q1027 NOSIG
Conditions at: LROP (BUCHAREST/OTOPEN, RO) observed 1330 UTC 24 January 2020
Temperature: 7.0°C (45°F)
Dewpoint: -7.0°C (19°F) [RH = 36%]
Pressure (altimeter): 30.32 inches Hg (1027.0 mb)
Winds: from the W (260 degrees) at 15 MPH (13 knots; 6.7 m/s)
Visibility: 6 or more miles (10+ km)
Ceiling: ceiling and visibility are OK
Clouds: unknown
Weather: no significant weather observed at this time

METAR text: LROP 241300Z 26012KT CAVOK 08/M05 Q1028 NOSIG
Conditions at: LROP (BUCHAREST/OTOPEN, RO) observed 1300 UTC 24 January 2020
Temperature: 8.0°C (46°F)
Dewpoint: -5.0°C (23°F) [RH = 39%]
Pressure (altimeter): 30.35 inches Hg (1028.0 mb)
Winds: from the W (260 degrees) at 14 MPH (12 knots; 6.2 m/s)
Visibility: 6 or more miles (10+ km)
Ceiling: ceiling and visibility are OK
Clouds: unknown
Weather: no significant weather observed at this time

METAR text: LROP 241230Z 27012KT CAVOK 07/M06 Q1028 NOSIG
Conditions at: LROP (BUCHAREST/OTOPEN, RO) observed 1230 UTC 24 January 2020
Temperature: 7.0°C (45°F)
Dewpoint: -6.0°C (21°F) [RH = 39%]
Pressure (altimeter): 30.35 inches Hg (1028.0 mb)
Winds: from the W (270 degrees) at 14 MPH (12 knots; 6.2 m/s)
Visibility: 6 or more miles (10+ km)
Ceiling: ceiling and visibility are OK
Clouds: unknown
Weather: no significant weather observed at this time

METAR text: LROP 241200Z 26011KT CAVOK 06/M05 Q1028 R26L/CLRD// R26R/CLRD// NOSIG
Conditions at: LROP (BUCHAREST/OTOPEN, RO) observed 1200 UTC 24 January 2020
Temperature: 6.0°C (43°F)
Dewpoint: -5.0°C (23°F) [RH = 45%]
Pressure (altimeter): 30.35 inches Hg (1028.0 mb)
Winds: from the W (260 degrees) at 13 MPH (11 knots; 5.7 m/s)
Visibility: 6 or more miles (10+ km)
Ceiling: ceiling and visibility are OK
Clouds: unknown
Weather: no significant weather observed at this time

METAR text: LROP 241130Z 26010KT CAVOK 06/M04 Q1029 R26L/CLRD// R26R/CLRD// NOSIG
Conditions at: LROP (BUCHAREST/OTOPEN, RO) observed 1130 UTC 24 January 2020
Temperature: 6.0°C (43°F)
Dewpoint: -4.0°C (25°F) [RH = 49%]
Pressure (altimeter): 30.38 inches Hg (1029.0 mb)
Winds: from the W (260 degrees) at 12 MPH (10 knots; 5.1 m/s)
Visibility: 6 or more miles (10+ km)
Ceiling: ceiling and visibility are OK
Clouds: unknown
Weather: no significant weather observed at this time

METAR text: LROP 241100Z 25008KT CAVOK 05/M04 Q1029 R26L/CLRD// R26R/19//95 NOSIG
Conditions at: LROP (BUCHAREST/OTOPEN, RO) observed 1100 UTC 24 January 2020
Temperature: 5.0°C (41°F)
Dewpoint: -4.0°C (25°F) [RH = 52%]
Pressure (altimeter): 30.38 inches Hg (1029.0 mb)
Winds: from the WSW (250 degrees) at 9 MPH (8 knots; 4.1 m/s)
Visibility: 6 or more miles (10+ km)
Ceiling: ceiling and visibility are OK
Clouds: unknown
Weather: no significant weather observed at this time

METAR text: LROP 241030Z 25009KT CAVOK 04/M04 Q1030 R26L/CLRD// R26R/19//95 NOSIG
Conditions at: LROP (BUCHAREST/OTOPEN, RO) observed 1030 UTC 24 January 2020
Temperature: 4.0°C (39°F)
Dewpoint: -4.0°C (25°F) [RH = 56%]
Pressure (altimeter): 30.41 inches Hg (1030.0 mb)
Winds: from the WSW (250 degrees) at 10 MPH (9 knots; 4.6 m/s)
Visibility: 6 or more miles (10+ km)
Ceiling: ceiling and visibility are OK
Clouds: unknown
Weather: no significant weather observed at this time

METAR text: LROP 241000Z 24008KT 8000 NSC 02/M04 Q1030 R26L/CLRD// R26R/19//95 NOSIG
Conditions at: LROP (BUCHAREST/OTOPEN, RO) observed 1000 UTC 24 January 2020
Temperature: 2.0°C (36°F)
Dewpoint: -4.0°C (25°F) [RH = 64%]
Pressure (altimeter): 30.41 inches Hg (1030.0 mb)
Winds: from the WSW (240 degrees) at 9 MPH (8 knots; 4.1 m/s)
Visibility: 5 miles ( 8 km)
Ceiling: at least 12,000 feet AGL
Clouds: sky clear below 12,000 feet AGL
Weather: no significant weather observed at this time

METAR text: LROP 240930Z 24008KT 7000 NSC 01/M04 Q1031 R26L/CLRD// R26R/19//95 NOSIG
Conditions at: LROP (BUCHAREST/OTOPEN, RO) observed 0930 UTC 24 January 2020
Temperature: 1.0°C (34°F)
Dewpoint: -4.0°C (25°F) [RH = 69%]
Pressure (altimeter): 30.44 inches Hg (1031.0 mb)
Winds: from the WSW (240 degrees) at 9 MPH (8 knots; 4.1 m/s)
Visibility: 4 miles ( 7 km)
Ceiling: at least 12,000 feet AGL
Clouds: sky clear below 12,000 feet AGL
Weather: no significant weather observed at this time

METAR text: LROP 240900Z 26007KT 6000 NSC M00/M04 Q1031 R26L/CLRD// R26R/19//95 NOSIG
Conditions at: LROP (BUCHAREST/OTOPEN, RO) observed 0900 UTC 24 January 2020
Temperature: 0.0°C (32°F)
Dewpoint: -4.0°C (25°F) [RH = 74%]
Pressure (altimeter): 30.44 inches Hg (1031.0 mb)
Winds: from the W (260 degrees) at 8 MPH (7 knots; 3.6 m/s)
Visibility: 4 miles ( 6 km)
Ceiling: at least 12,000 feet AGL
Clouds: sky clear below 12,000 feet AGL
Weather: no significant weather observed at this time

METAR text: LROP 240830Z 27005KT 240V300 5000 BR NSC M00/M03 Q1031 R26L/CLRD// R26R/19//95 NOSIG
Conditions at: LROP (BUCHAREST/OTOPEN, RO) observed 0830 UTC 24 January 2020
Temperature: 0.0°C (32°F)
Dewpoint: -3.0°C (27°F) [RH = 80%]
Pressure (altimeter): 30.44 inches Hg (1031.0 mb)
Winds: from the W (270 degrees) at 6 MPH (5 knots; 2.6 m/s)
Visibility: 3 miles ( 5 km)
Ceiling: at least 12,000 feet AGL
Clouds: sky clear below 12,000 feet AGL
Weather: BR  (mist)

METAR text: LROP 240800Z 25003KT 220V280 5000 BR NSC M02/M04 Q1031 R26L/CLRD// R26R/19//95 NOSIG
Conditions at: LROP (BUCHAREST/OTOPEN, RO) observed 0800 UTC 24 January 2020
Temperature: -2.0°C (28°F)
Dewpoint: -4.0°C (25°F) [RH = 86%]
Pressure (altimeter): 30.44 inches Hg (1031.0 mb)
Winds: from the WSW (250 degrees) at 3 MPH (3 knots; 1.5 m/s)
Visibility: 3 miles ( 5 km)
Ceiling: at least 12,000 feet AGL
Clouds: sky clear below 12,000 feet AGL
Weather: BR  (mist)

METAR text: LROP 240730Z 25005KT 4000 BR NSC M03/M04 Q1032 NOSIG
Conditions at: LROP (BUCHAREST/OTOPEN, RO) observed 0730 UTC 24 January 2020
Temperature: -3.0°C (27°F)
Dewpoint: -4.0°C (25°F) [RH = 93%]
Pressure (altimeter): 30.47 inches Hg (1032.0 mb)
Winds: from the WSW (250 degrees) at 6 MPH (5 knots; 2.6 m/s)
Visibility: 2.49 miles (4.01 km)
Ceiling: at least 12,000 feet AGL
Clouds: sky clear below 12,000 feet AGL
Weather: BR  (mist)

METAR text: LROP 240700Z 29004KT 4000 BR NSC M04/M05 Q1032 NOSIG
Conditions at: LROP (BUCHAREST/OTOPEN, RO) observed 0700 UTC 24 January 2020
Temperature: -4.0°C (25°F)
Dewpoint: -5.0°C (23°F) [RH = 93%]
Pressure (altimeter): 30.47 inches Hg (1032.0 mb)
Winds: from the WNW (290 degrees) at 5 MPH (4 knots; 2.1 m/s)
Visibility: 2.49 miles (4.01 km)
Ceiling: at least 12,000 feet AGL
Clouds: sky clear below 12,000 feet AGL
Weather: BR  (mist)

METAR text: LROP 240630Z 00000KT 4000 BR NSC M06/M07 Q1032 NOSIG
Conditions at: LROP (BUCHAREST/OTOPEN, RO) observed 0630 UTC 24 January 2020
Temperature: -6.0°C (21°F)
Dewpoint: -7.0°C (19°F) [RH = 93%]
Pressure (altimeter): 30.47 inches Hg (1032.0 mb)
Winds: calm
Visibility: 2.49 miles (4.01 km)
Ceiling: at least 12,000 feet AGL
Clouds: sky clear below 12,000 feet AGL
Weather: BR  (mist)

METAR text: LROP 240600Z 22002KT 5000 BR NSC M07/M07 Q1032 NOSIG
Conditions at: LROP (BUCHAREST/OTOPEN, RO) observed 0600 UTC 24 January 2020
Temperature: -7.0°C (19°F)
Dewpoint: -7.0°C (19°F) [RH = 100%]
Pressure (altimeter): 30.47 inches Hg (1032.0 mb)
Winds: from the SW (220 degrees) at 2 MPH (2 knots; 1.0 m/s)
Visibility: 3 miles ( 5 km)
Ceiling: at least 12,000 feet AGL
Clouds: sky clear below 12,000 feet AGL
Weather: BR  (mist)

METAR text: LROP 240530Z 00000KT 5000 BR NSC M06/M07 Q1031 NOSIG
Conditions at: LROP (BUCHAREST/OTOPEN, RO) observed 0530 UTC 24 January 2020
Temperature: -6.0°C (21°F)
Dewpoint: -7.0°C (19°F) [RH = 93%]
Pressure (altimeter): 30.44 inches Hg (1031.0 mb)
Winds: calm
Visibility: 3 miles ( 5 km)
Ceiling: at least 12,000 feet AGL
Clouds: sky clear below 12,000 feet AGL
Weather: BR  (mist)

METAR text: LROP 240500Z 26002KT 5000 BR NSC M06/M07 Q1032 NOSIG
Conditions at: LROP (BUCHAREST/OTOPEN, RO) observed 0500 UTC 24 January 2020
Temperature: -6.0°C (21°F)
Dewpoint: -7.0°C (19°F) [RH = 93%]
Pressure (altimeter): 30.47 inches Hg (1032.0 mb)
Winds: from the W (260 degrees) at 2 MPH (2 knots; 1.0 m/s)
Visibility: 3 miles ( 5 km)
Ceiling: at least 12,000 feet AGL
Clouds: sky clear below 12,000 feet AGL
Weather: BR  (mist)

METAR text: LROP 240430Z 26002KT 6000 NSC M07/M07 Q1032 NOSIG
Conditions at: LROP (BUCHAREST/OTOPEN, RO) observed 0430 UTC 24 January 2020
Temperature: -7.0°C (19°F)
Dewpoint: -7.0°C (19°F) [RH = 100%]
Pressure (altimeter): 30.47 inches Hg (1032.0 mb)
Winds: from the W (260 degrees) at 2 MPH (2 knots; 1.0 m/s)
Visibility: 4 miles ( 6 km)
Ceiling: at least 12,000 feet AGL
Clouds: sky clear below 12,000 feet AGL
Weather: no significant weather observed at this time

METAR text: LROP 240400Z 27003KT 6000 NSC M07/M07 Q1032 NOSIG
Conditions at: LROP (BUCHAREST/OTOPEN, RO) observed 0400 UTC 24 January 2020
Temperature: -7.0°C (19°F)
Dewpoint: -7.0°C (19°F) [RH = 100%]
Pressure (altimeter): 30.47 inches Hg (1032.0 mb)
Winds: from the W (270 degrees) at 3 MPH (3 knots; 1.5 m/s)
Visibility: 4 miles ( 6 km)
Ceiling: at least 12,000 feet AGL
Clouds: sky clear below 12,000 feet AGL
Weather: no significant weather observed at this time

METAR text: LROP 240330Z 27004KT 6000 NSC M06/M07 Q1032 NOSIG
Conditions at: LROP (BUCHAREST/OTOPEN, RO) observed 0330 UTC 24 January 2020
Temperature: -6.0°C (21°F)
Dewpoint: -7.0°C (19°F) [RH = 93%]
Pressure (altimeter): 30.47 inches Hg (1032.0 mb)
Winds: from the W (270 degrees) at 5 MPH (4 knots; 2.1 m/s)
Visibility: 4 miles ( 6 km)
Ceiling: at least 12,000 feet AGL
Clouds: sky clear below 12,000 feet AGL
Weather: no significant weather observed at this time

METAR text: LROP 240300Z 26004KT 230V290 7000 NSC M05/M07 Q1032 NOSIG
Conditions at: LROP (BUCHAREST/OTOPEN, RO) observed 0300 UTC 24 January 2020
Temperature: -5.0°C (23°F)
Dewpoint: -7.0°C (19°F) [RH = 86%]
Pressure (altimeter): 30.47 inches Hg (1032.0 mb)
Winds: from the W (260 degrees) at 5 MPH (4 knots; 2.1 m/s)
Visibility: 4 miles ( 7 km)
Ceiling: at least 12,000 feet AGL
Clouds: sky clear below 12,000 feet AGL
Weather: no significant weather observed at this time

METAR text: LROP 240230Z 00000KT 7000 NSC M05/M06 Q1032 NOSIG
Conditions at: LROP (BUCHAREST/OTOPEN, RO) observed 0230 UTC 24 January 2020
Temperature: -5.0°C (23°F)
Dewpoint: -6.0°C (21°F) [RH = 93%]
Pressure (altimeter): 30.47 inches Hg (1032.0 mb)
Winds: calm
Visibility: 4 miles ( 7 km)
Ceiling: at least 12,000 feet AGL
Clouds: sky clear below 12,000 feet AGL
Weather: no significant weather observed at this time

METAR text: LROP 240200Z 00000KT 7000 NSC M05/M07 Q1032 NOSIG
Conditions at: LROP (BUCHAREST/OTOPEN, RO) observed 0200 UTC 24 January 2020
Temperature: -5.0°C (23°F)
Dewpoint: -7.0°C (19°F) [RH = 86%]
Pressure (altimeter): 30.47 inches Hg (1032.0 mb)
Winds: calm
Visibility: 4 miles ( 7 km)
Ceiling: at least 12,000 feet AGL
Clouds: sky clear below 12,000 feet AGL
Weather: no significant weather observed at this time

METAR text: LROP 240130Z 29004KT 7000 NSC M06/M07 Q1032 NOSIG
Conditions at: LROP (BUCHAREST/OTOPEN, RO) observed 0130 UTC 24 January 2020
Temperature: -6.0°C (21°F)
Dewpoint: -7.0°C (19°F) [RH = 93%]
Pressure (altimeter): 30.47 inches Hg (1032.0 mb)
Winds: from the WNW (290 degrees) at 5 MPH (4 knots; 2.1 m/s)
Visibility: 4 miles ( 7 km)
Ceiling: at least 12,000 feet AGL
Clouds: sky clear below 12,000 feet AGL
Weather: no significant weather observed at this time

METAR text: LROP 240100Z 27003KT 8000 NSC M05/M06 Q1033 NOSIG
Conditions at: LROP (BUCHAREST/OTOPEN, RO) observed 0100 UTC 24 January 2020
Temperature: -5.0°C (23°F)
Dewpoint: -6.0°C (21°F) [RH = 93%]
Pressure (altimeter): 30.50 inches Hg (1033.0 mb)
Winds: from the W (270 degrees) at 3 MPH (3 knots; 1.5 m/s)
Visibility: 5 miles ( 8 km)
Ceiling: at least 12,000 feet AGL
Clouds: sky clear below 12,000 feet AGL
Weather: no significant weather observed at this time

METAR text: LROP 240030Z 28003KT CAVOK M04/M06 Q1033 NOSIG
Conditions at: LROP (BUCHAREST/OTOPEN, RO) observed 0030 UTC 24 January 2020
Temperature: -4.0°C (25°F)
Dewpoint: -6.0°C (21°F) [RH = 86%]
Pressure (altimeter): 30.50 inches Hg (1033.0 mb)
Winds: from the W (280 degrees) at 3 MPH (3 knots; 1.5 m/s)
Visibility: 6 or more miles (10+ km)
Ceiling: ceiling and visibility are OK
Clouds: unknown
Weather: no significant weather observed at this time

METAR text: LROP 240000Z VRB02KT CAVOK M04/M06 Q1033 NOSIG
Conditions at: LROP (BUCHAREST/OTOPEN, RO) observed 0000 UTC 24 January 2020
Temperature: -4.0°C (25°F)
Dewpoint: -6.0°C (21°F) [RH = 86%]
Pressure (altimeter): 30.50 inches Hg (1033.0 mb)
Winds: variable direction winds at 2 MPH (2 knots; 1.0 m/s)
Visibility: 6 or more miles (10+ km)
Ceiling: ceiling and visibility are OK
Clouds: unknown
Weather: no significant weather observed at this time

METAR text: LROP 232330Z 28003KT 210V320 CAVOK M04/M06 Q1033 NOSIG
Conditions at: LROP (BUCHAREST/OTOPEN, RO) observed 2330 UTC 23 January 2020
Temperature: -4.0°C (25°F)
Dewpoint: -6.0°C (21°F) [RH = 86%]
Pressure (altimeter): 30.50 inches Hg (1033.0 mb)
Winds: from the W (280 degrees) at 3 MPH (3 knots; 1.5 m/s)
Visibility: 6 or more miles (10+ km)
Ceiling: ceiling and visibility are OK
Clouds: unknown
Weather: no significant weather observed at this time

METAR text: LROP 232300Z 30004KT 250V050 CAVOK M05/M07 Q1033 NOSIG
Conditions at: LROP (BUCHAREST/OTOPEN, RO) observed 2300 UTC 23 January 2020
Temperature: -5.0°C (23°F)
Dewpoint: -7.0°C (19°F) [RH = 86%]
Pressure (altimeter): 30.50 inches Hg (1033.0 mb)
Winds: from the WNW (300 degrees) at 5 MPH (4 knots; 2.1 m/s)
Visibility: 6 or more miles (10+ km)
Ceiling: ceiling and visibility are OK
Clouds: unknown
Weather: no significant weather observed at this time

METAR text: LROP 232230Z 36004KT 8000 NSC M04/M06 Q1033 NOSIG
Conditions at: LROP (BUCHAREST/OTOPEN, RO) observed 2230 UTC 23 January 2020
Temperature: -4.0°C (25°F)
Dewpoint: -6.0°C (21°F) [RH = 86%]
Pressure (altimeter): 30.50 inches Hg (1033.0 mb)
Winds: from the N (360 degrees) at 5 MPH (4 knots; 2.1 m/s)
Visibility: 5 miles ( 8 km)
Ceiling: at least 12,000 feet AGL
Clouds: sky clear below 12,000 feet AGL
Weather: no significant weather observed at this time

METAR text: LROP 232200Z 29004KT 7000 NSC M04/M06 Q1033 NOSIG
Conditions at: LROP (BUCHAREST/OTOPEN, RO) observed 2200 UTC 23 January 2020
Temperature: -4.0°C (25°F)
Dewpoint: -6.0°C (21°F) [RH = 86%]
Pressure (altimeter): 30.50 inches Hg (1033.0 mb)
Winds: from the WNW (290 degrees) at 5 MPH (4 knots; 2.1 m/s)
Visibility: 4 miles ( 7 km)
Ceiling: at least 12,000 feet AGL
Clouds: sky clear below 12,000 feet AGL
Weather: no significant weather observed at this time

METAR text: LROP 232130Z 26005KT CAVOK M04/M06 Q1033 NOSIG
Conditions at: LROP (BUCHAREST/OTOPEN, RO) observed 2130 UTC 23 January 2020
Temperature: -4.0°C (25°F)
Dewpoint: -6.0°C (21°F) [RH = 86%]
Pressure (altimeter): 30.50 inches Hg (1033.0 mb)
Winds: from the W (260 degrees) at 6 MPH (5 knots; 2.6 m/s)
Visibility: 6 or more miles (10+ km)
Ceiling: ceiling and visibility are OK
Clouds: unknown
Weather: no significant weather observed at this time

METAR text: LROP 232100Z 27003KT 250V330 CAVOK M03/M06 Q1033 NOSIG
Conditions at: LROP (BUCHAREST/OTOPEN, RO) observed 2100 UTC 23 January 2020
Temperature: -3.0°C (27°F)
Dewpoint: -6.0°C (21°F) [RH = 80%]
Pressure (altimeter): 30.50 inches Hg (1033.0 mb)
Winds: from the W (270 degrees) at 3 MPH (3 knots; 1.5 m/s)
Visibility: 6 or more miles (10+ km)
Ceiling: ceiling and visibility are OK
Clouds: unknown
Weather: no significant weather observed at this time

METAR text: LROP 232030Z 28004KT CAVOK M02/M06 Q1033 NOSIG
Conditions at: LROP (BUCHAREST/OTOPEN, RO) observed 2030 UTC 23 January 2020
Temperature: -2.0°C (28°F)
Dewpoint: -6.0°C (21°F) [RH = 74%]
Pressure (altimeter): 30.50 inches Hg (1033.0 mb)
Winds: from the W (280 degrees) at 5 MPH (4 knots; 2.1 m/s)
Visibility: 6 or more miles (10+ km)
Ceiling: ceiling and visibility are OK
Clouds: unknown
Weather: no significant weather observed at this time

METAR text: LROP 232000Z 25004KT CAVOK M04/M07 Q1033 NOSIG
Conditions at: LROP (BUCHAREST/OTOPEN, RO) observed 2000 UTC 23 January 2020
Temperature: -4.0°C (25°F)
Dewpoint: -7.0°C (19°F) [RH = 80%]
Pressure (altimeter): 30.50 inches Hg (1033.0 mb)
Winds: from the WSW (250 degrees) at 5 MPH (4 knots; 2.1 m/s)
Visibility: 6 or more miles (10+ km)
Ceiling: ceiling and visibility are OK
Clouds: unknown
Weather: no significant weather observed at this time

METAR text: LROP 231930Z 24002KT CAVOK M02/M06 Q1033 NOSIG
Conditions at: LROP (BUCHAREST/OTOPEN, RO) observed 1930 UTC 23 January 2020
Temperature: -2.0°C (28°F)
Dewpoint: -6.0°C (21°F) [RH = 74%]
Pressure (altimeter): 30.50 inches Hg (1033.0 mb)
Winds: from the WSW (240 degrees) at 2 MPH (2 knots; 1.0 m/s)
Visibility: 6 or more miles (10+ km)
Ceiling: ceiling and visibility are OK
Clouds: unknown
Weather: no significant weather observed at this time

METAR text: LROP 231900Z 21002KT CAVOK M01/M06 Q1032 NOSIG
Conditions at: LROP (BUCHAREST/OTOPEN, RO) observed 1900 UTC 23 January 2020
Temperature: -1.0°C (30°F)
Dewpoint: -6.0°C (21°F) [RH = 69%]
Pressure (altimeter): 30.47 inches Hg (1032.0 mb)
Winds: from the SSW (210 degrees) at 2 MPH (2 knots; 1.0 m/s)
Visibility: 6 or more miles (10+ km)
Ceiling: ceiling and visibility are OK
Clouds: unknown
Weather: no significant weather observed at this time

METAR text: LROP 231830Z 17003KT CAVOK M01/M06 Q1032 NOSIG
Conditions at: LROP (BUCHAREST/OTOPEN, RO) observed 1830 UTC 23 January 2020
Temperature: -1.0°C (30°F)
Dewpoint: -6.0°C (21°F) [RH = 69%]
Pressure (altimeter): 30.47 inches Hg (1032.0 mb)
Winds: from the S (170 degrees) at 3 MPH (3 knots; 1.5 m/s)
Visibility: 6 or more miles (10+ km)
Ceiling: ceiling and visibility are OK
Clouds: unknown
Weather: no significant weather observed at this time

METAR text: LROP 231800Z 16004KT CAVOK M00/M07 Q1032 NOSIG
Conditions at: LROP (BUCHAREST/OTOPEN, RO) observed 1800 UTC 23 January 2020
Temperature: 0.0°C (32°F)
Dewpoint: -7.0°C (19°F) [RH = 59%]
Pressure (altimeter): 30.47 inches Hg (1032.0 mb)
Winds: from the SSE (160 degrees) at 5 MPH (4 knots; 2.1 m/s)
Visibility: 6 or more miles (10+ km)
Ceiling: ceiling and visibility are OK
Clouds: unknown
Weather: no significant weather observed at this time

METAR text: LROP 231730Z 09004KT CAVOK 01/M07 Q1032 NOSIG
Conditions at: LROP (BUCHAREST/OTOPEN, RO) observed 1730 UTC 23 January 2020
Temperature: 1.0°C (34°F)
Dewpoint: -7.0°C (19°F) [RH = 55%]
Pressure (altimeter): 30.47 inches Hg (1032.0 mb)
Winds: from the E (90 degrees) at 5 MPH (4 knots; 2.1 m/s)
Visibility: 6 or more miles (10+ km)
Ceiling: ceiling and visibility are OK
Clouds: unknown
Weather: no significant weather observed at this time

METAR text: LROP 231700Z 05004KT 020V080 CAVOK 01/M07 Q1031 NOSIG
Conditions at: LROP (BUCHAREST/OTOPEN, RO) observed 1700 UTC 23 January 2020
Temperature: 1.0°C (34°F)
Dewpoint: -7.0°C (19°F) [RH = 55%]
Pressure (altimeter): 30.44 inches Hg (1031.0 mb)
Winds: from the NE (50 degrees) at 5 MPH (4 knots; 2.1 m/s)
Visibility: 6 or more miles (10+ km)
Ceiling: ceiling and visibility are OK
Clouds: unknown
Weather: no significant weather observed at this time

METAR text: LROP 231630Z 06006KT CAVOK 01/M07 Q1031 NOSIG
Conditions at: LROP (BUCHAREST/OTOPEN, RO) observed 1630 UTC 23 January 2020
Temperature: 1.0°C (34°F)
Dewpoint: -7.0°C (19°F) [RH = 55%]
Pressure (altimeter): 30.44 inches Hg (1031.0 mb)
Winds: from the ENE (60 degrees) at 7 MPH (6 knots; 3.1 m/s)
Visibility: 6 or more miles (10+ km)
Ceiling: ceiling and visibility are OK
Clouds: unknown
Weather: no significant weather observed at this time

METAR text: LROP 231600Z 09007KT 040V130 CAVOK 02/M06 Q1031 NOSIG
Conditions at: LROP (BUCHAREST/OTOPEN, RO) observed 1600 UTC 23 January 2020
Temperature: 2.0°C (36°F)
Dewpoint: -6.0°C (21°F) [RH = 55%]
Pressure (altimeter): 30.44 inches Hg (1031.0 mb)
Winds: from the E (90 degrees) at 8 MPH (7 knots; 3.6 m/s)
Visibility: 6 or more miles (10+ km)
Ceiling: ceiling and visibility are OK
Clouds: unknown
Weather: no significant weather observed at this time

METAR text: LROP 231530Z 04008KT CAVOK 03/M07 Q1031 NOSIG
Conditions at: LROP (BUCHAREST/OTOPEN, RO) observed 1530 UTC 23 January 2020
Temperature: 3.0°C (37°F)
Dewpoint: -7.0°C (19°F) [RH = 48%]
Pressure (altimeter): 30.44 inches Hg (1031.0 mb)
Winds: from the NE (40 degrees) at 9 MPH (8 knots; 4.1 m/s)
Visibility: 6 or more miles (10+ km)
Ceiling: ceiling and visibility are OK
Clouds: unknown
Weather: no significant weather observed at this time

METAR text: LROP 231500Z 06009KT CAVOK 05/M07 Q1031 NOSIG
Conditions at: LROP (BUCHAREST/OTOPEN, RO) observed 1500 UTC 23 January 2020
Temperature: 5.0°C (41°F)
Dewpoint: -7.0°C (19°F) [RH = 41%]
Pressure (altimeter): 30.44 inches Hg (1031.0 mb)
Winds: from the ENE (60 degrees) at 10 MPH (9 knots; 4.6 m/s)
Visibility: 6 or more miles (10+ km)
Ceiling: ceiling and visibility are OK
Clouds: unknown
Weather: no significant weather observed at this time

Forecast for: LROP (BUCHAREST/OTOPEN, RO)
Text: TAF LROP 242300Z 2500/2524 25008KT CAVOK
Forecast period: 0000 UTC 25 January 2020 to 0000 UTC 26 January 2020
Forecast type: FROM: standard forecast or significant change
Winds: from the WSW (250 degrees) at 9 MPH (8 knots; 4.1 m/s)
Visibility: 6 or more miles 10+ km)
Ceiling: unknown
Clouds: missing
Weather: NSW  (no significant weather)
Text: TEMPO 2502/2506 3000 BR
Forecast period: 0200 to 0600 UTC 25 January 2020
Forecast type: TEMPORARY: The following changes expected for less than half the time period
Visibility: 1.86 miles (2.99 km)
Ceiling: unknown
Clouds: missing
Weather: BR  (mist)